Time;durP1;ratioP1;P1;durP2;ratioP2;P2;SDS_P1;SDS_P2;PMS_P1;PMS_P2;Temp;Humidity;BMP_temperature;BMP_pressure;BME280_temperature;BME280_humidity;BME280_pressure;Samples;Min_cycle;Max_cycle;Signal;HPM_P1;HPM_P2
2022/03/27 00:00:13;;;;;;;24.63;9.03;;;;;;;;;;4984824;28;20231;-65
2022/03/27 00:02:41;;;;;;;19.47;8.53;;;;;;;;;;5009702;28;20226;-64
2022/03/27 00:05:09;;;;;;;18.17;8.67;;;;;;;;;;5009917;28;20207;-63
2022/03/27 00:07:37;;;;;;;15.10;8.60;;;;;;;;;;4998233;28;20218;-65
2022/03/27 00:10:06;;;;;;;18.10;9.30;;;;;;;;;;5009141;28;20226;-65
2022/03/27 00:12:33;;;;;;;17.77;9.03;;;;;;;;;;4995481;28;20582;-65
2022/03/27 00:15:01;;;;;;;17.80;9.93;;;;;;;;;;5003294;28;20206;-66
2022/03/27 00:17:32;;;;;;;19.23;8.83;;;;;;;;;;4998661;28;20261;-64
2022/03/27 00:20:09;;;;;;;19.50;8.57;;;;;;;;;;5004887;28;20254;-65
2022/03/27 00:22:37;;;;;;;15.20;8.37;;;;;;;;;;5004523;28;21885;-64
2022/03/27 00:25:05;;;;;;;20.60;8.47;;;;;;;;;;4989714;28;20216;-65
2022/03/27 00:27:33;;;;;;;16.40;7.90;;;;;;;;;;4994608;28;20261;-65
2022/03/27 00:30:00;;;;;;;18.10;8.47;;;;;;;;;;5011807;28;20289;-63
2022/03/27 00:32:28;;;;;;;20.27;9.03;;;;;;;;;;5001673;28;20238;-65
2022/03/27 00:34:55;;;;;;;16.93;8.93;;;;;;;;;;5007152;28;21854;-65
2022/03/27 00:37:22;;;;;;;20.03;8.90;;;;;;;;;;5000043;28;20226;-64
2022/03/27 00:39:50;;;;;;;18.43;8.70;;;;;;;;;;4984276;28;20203;-64
2022/03/27 00:42:19;;;;;;;19.47;9.33;;;;;;;;;;4997870;28;20253;-65
2022/03/27 00:44:47;;;;;;;18.30;8.73;;;;;;;;;;5015383;28;20585;-66
2022/03/27 00:47:15;;;;;;;20.10;9.53;;;;;;;;;;4989656;28;20229;-65
2022/03/27 00:49:42;;;;;;;18.37;8.83;;;;;;;;;;4990537;28;20213;-65
2022/03/27 00:52:09;;;;;;;19.87;8.63;;;;;;;;;;5011392;28;20217;-66
2022/03/27 00:54:37;;;;;;;13.73;8.57;;;;;;;;;;4987982;28;20265;-62
2022/03/27 00:57:04;;;;;;;16.60;8.57;;;;;;;;;;5000791;28;20230;-65
2022/03/27 00:59:32;;;;;;;20.07;8.70;;;;;;;;;;4984378;28;20289;-64
2022/03/27 01:02:01;;;;;;;18.50;8.13;;;;;;;;;;4995320;28;20316;-64
2022/03/27 01:04:55;;;;;;;18.83;8.43;;;;;;;;;;5001852;28;20201;-65
2022/03/27 01:07:46;;;;;;;17.60;8.70;;;;;;;;;;5010581;28;20784;-63
2022/03/27 01:10:38;;;;;;;17.53;8.37;;;;;;;;;;5007279;28;20229;-64
2022/03/27 01:13:30;;;;;;;16.57;7.50;;;;;;;;;;5013831;28;20337;-66
2022/03/27 01:16:33;;;;;;;19.77;8.43;;;;;;;;;;5019546;28;20226;-64
2022/03/27 01:19:26;;;;;;;13.53;8.63;;;;;;;;;;5014008;28;20729;-63
2022/03/27 01:22:17;;;;;;;17.10;9.43;;;;;;;;;;5000822;28;20683;-66
2022/03/27 01:25:09;;;;;;;19.53;8.63;;;;;;;;;;5013112;28;20205;-65
2022/03/27 01:28:00;;;;;;;17.10;8.77;;;;;;;;;;5011395;28;20205;-65
2022/03/27 01:30:52;;;;;;;17.07;8.60;;;;;;;;;;5010261;28;20237;-64
2022/03/27 01:33:42;;;;;;;16.50;9.17;;;;;;;;;;4998621;28;20299;-63
2022/03/27 01:36:35;;;;;;;18.30;8.90;;;;;;;;;;5002946;28;20252;-65
2022/03/27 01:39:25;;;;;;;18.93;8.57;;;;;;;;;;5015030;28;20619;-64
2022/03/27 01:42:16;;;;;;;16.60;8.63;;;;;;;;;;5040761;28;20220;-65
2022/03/27 01:44:47;;;;;;;20.20;8.67;;;;;;;;;;5013024;28;20671;-65
2022/03/27 01:47:15;;;;;;;15.87;8.97;;;;;;;;;;5014537;28;20225;-64
2022/03/27 01:49:42;;;;;;;17.40;9.00;;;;;;;;;;5012452;28;20210;-63
2022/03/27 01:52:34;;;;;;;15.53;8.50;;;;;;;;;;5013085;28;20320;-65
2022/03/27 01:55:26;;;;;;;17.87;9.33;;;;;;;;;;5000044;28;20224;-65
2022/03/27 01:58:17;;;;;;;19.50;8.97;;;;;;;;;;5006602;28;20224;-63
2022/03/27 02:01:09;;;;;;;19.07;8.93;;;;;;;;;;5009070;28;20225;-65
2022/03/27 02:03:41;;;;;;;25.53;9.50;;;;;;;;;;4995803;28;20209;-65
2022/03/27 02:06:33;;;;;;;16.77;9.13;;;;;;;;;;5012984;28;20199;-65
2022/03/27 02:09:24;;;;;;;20.57;10.17;;;;;;;;;;5003819;28;20321;-65
2022/03/27 02:12:16;;;;;;;22.37;9.53;;;;;;;;;;5008496;28;20251;-65
2022/03/27 02:15:08;;;;;;;24.97;9.93;;;;;;;;;;5022931;28;20204;-65
2022/03/27 02:18:01;;;;;;;17.73;8.83;;;;;;;;;;5008095;28;20224;-63
2022/03/27 02:20:29;;;;;;;15.50;8.90;;;;;;;;;;5011859;28;20232;-65
2022/03/27 02:22:57;;;;;;;15.47;9.40;;;;;;;;;;5018572;28;20202;-64
2022/03/27 02:25:49;;;;;;;15.13;9.40;;;;;;;;;;4998955;28;20228;-64
2022/03/27 02:28:41;;;;;;;22.67;9.27;;;;;;;;;;5013314;28;20239;-65
2022/03/27 02:31:33;;;;;;;16.17;8.73;;;;;;;;;;4999744;28;20311;-64
2022/03/27 02:34:26;;;;;;;18.33;9.07;;;;;;;;;;5002493;28;20192;-65
2022/03/27 02:36:54;;;;;;;17.17;9.50;;;;;;;;;;5002774;28;20706;-65
2022/03/27 02:39:46;;;;;;;19.67;9.30;;;;;;;;;;5017988;28;20237;-66
2022/03/27 02:42:16;;;;;;;18.97;9.30;;;;;;;;;;5013224;28;20255;-65
2022/03/27 02:44:43;;;;;;;17.53;9.13;;;;;;;;;;5011473;28;20213;-63
2022/03/27 02:47:35;;;;;;;18.93;8.67;;;;;;;;;;5007786;28;20211;-65
2022/03/27 02:50:26;;;;;;;18.53;9.70;;;;;;;;;;4994280;28;20784;-64
2022/03/27 02:52:54;;;;;;;14.63;8.77;;;;;;;;;;4991025;28;20232;-65
2022/03/27 02:55:22;;;;;;;17.60;9.97;;;;;;;;;;4993216;28;20212;-65
2022/03/27 02:57:51;;;;;;;19.03;9.97;;;;;;;;;;4993223;28;20227;-66
2022/03/27 03:00:19;;;;;;;18.23;10.07;;;;;;;;;;5007572;28;20241;-66
2022/03/27 03:02:46;;;;;;;18.53;9.47;;;;;;;;;;5002862;28;20208;-65
2022/03/27 03:05:17;;;;;;;20.17;9.67;;;;;;;;;;4989863;28;20585;-65
2022/03/27 03:07:44;;;;;;;17.57;9.47;;;;;;;;;;5015215;28;21156;-65
2022/03/27 03:10:16;;;;;;;19.90;9.80;;;;;;;;;;4994807;28;20726;-65
2022/03/27 03:12:43;;;;;;;21.83;9.80;;;;;;;;;;4986967;28;20213;-65
2022/03/27 03:15:42;;;;;;;19.27;9.57;;;;;;;;;;4990657;28;20697;-65
2022/03/27 03:18:11;;;;;;;24.70;9.63;;;;;;;;;;4981238;28;20277;-66
2022/03/27 08:32:35;;;;;;;16.30;8.03;;;;;;;;;;6030829;22;20269;-79
2022/03/27 08:35:07;;;;;;;16.80;8.10;;;;;;;;;;4992971;28;20208;-81
2022/03/27 08:37:35;;;;;;;14.80;7.90;;;;;;;;;;4995082;28;20304;-79
2022/03/27 08:40:03;;;;;;;15.57;8.07;;;;;;;;;;4978866;28;20254;-82
2022/03/27 08:42:30;;;;;;;17.13;8.37;;;;;;;;;;4986261;28;20220;-81
2022/03/27 08:44:58;;;;;;;16.67;7.60;;;;;;;;;;4981452;28;20293;-79
2022/03/27 08:47:26;;;;;;;19.30;8.67;;;;;;;;;;4973286;28;20217;-79
2022/03/27 08:50:02;;;;;;;16.63;7.73;;;;;;;;;;4978263;28;20694;-78
2022/03/27 08:52:48;;;;;;;13.30;8.40;;;;;;;;;;4971528;28;20235;-76
2022/03/27 08:55:20;;;;;;;17.93;8.40;;;;;;;;;;4974805;28;20217;-78
2022/03/27 08:57:59;;;;;;;19.47;8.77;;;;;;;;;;5006149;28;20228;-80
2022/03/27 09:00:31;;;;;;;16.03;8.50;;;;;;;;;;5011775;28;20196;-81
2022/03/27 09:03:00;;;;;;;12.93;7.53;;;;;;;;;;4999509;28;20220;-82
2022/03/27 09:05:28;;;;;;;14.97;9.73;;;;;;;;;;5002145;28;20272;-81
2022/03/27 09:07:57;;;;;;;17.20;9.50;;;;;;;;;;5003822;28;20307;-80
2022/03/27 09:10:29;;;;;;;15.63;8.90;;;;;;;;;;4991767;28;20271;-78
2022/03/27 09:12:57;;;;;;;17.70;8.57;;;;;;;;;;5008550;28;20239;-77
2022/03/27 09:15:25;;;;;;;14.30;8.70;;;;;;;;;;4996192;28;20211;-80
2022/03/27 09:17:55;;;;;;;18.00;8.60;;;;;;;;;;4996385;28;20251;-77
2022/03/27 09:20:30;;;;;;;16.00;9.67;;;;;;;;;;5002219;28;20192;-76
2022/03/27 09:23:23;;;;;;;16.40;8.87;;;;;;;;;;5006079;28;20236;-80
2022/03/27 09:26:04;;;;;;;18.10;9.00;;;;;;;;;;4994716;28;20279;-79
2022/03/27 09:28:35;;;;;;;16.37;9.53;;;;;;;;;;4996148;28;20592;-80
2022/03/27 09:31:07;;;;;;;14.50;9.00;;;;;;;;;;5000635;28;20243;-79
2022/03/27 09:33:37;;;;;;;19.90;9.30;;;;;;;;;;4997679;28;20239;-81
2022/03/27 09:36:06;;;;;;;18.80;9.20;;;;;;;;;;5007189;28;20204;-81
2022/03/27 09:38:42;;;;;;;17.77;9.67;;;;;;;;;;5002815;28;20259;-82
2022/03/27 09:41:29;;;;;;;17.00;8.77;;;;;;;;;;5000147;28;20223;-81
2022/03/27 09:44:01;;;;;;;18.20;9.47;;;;;;;;;;4998387;28;20227;-79
2022/03/27 09:47:04;;;;;;;17.20;9.20;;;;;;;;;;4999394;28;20227;-81
2022/03/27 09:49:35;;;;;;;15.33;8.80;;;;;;;;;;4988471;28;20243;-85
2022/03/27 09:52:13;;;;;;;17.03;9.70;;;;;;;;;;5001306;28;20207;-79
2022/03/27 09:55:03;;;;;;;16.27;9.83;;;;;;;;;;5005838;28;20289;-79
2022/03/27 09:57:35;;;;;;;15.33;9.33;;;;;;;;;;5004879;28;20316;-80
2022/03/27 10:00:13;;;;;;;16.23;10.27;;;;;;;;;;5004893;28;20201;-82
2022/03/27 10:02:44;;;;;;;17.90;10.27;;;;;;;;;;5003041;28;20242;-81
2022/03/27 10:05:16;;;;;;;15.00;10.50;;;;;;;;;;5009668;28;20216;-82
2022/03/27 10:07:44;;;;;;;21.43;10.57;;;;;;;;;;4988247;28;20572;-80
2022/03/27 10:10:15;;;;;;;17.57;10.50;;;;;;;;;;4984810;28;20624;-78
2022/03/27 10:12:46;;;;;;;17.80;9.87;;;;;;;;;;4994817;28;20228;-80
2022/03/27 10:15:14;;;;;;;15.53;9.93;;;;;;;;;;4991430;28;20207;-79
2022/03/27 10:17:47;;;;;;;17.47;10.53;;;;;;;;;;4994276;28;20255;-83
2022/03/27 10:20:15;;;;;;;20.20;11.40;;;;;;;;;;4984020;28;20566;-81
2022/03/27 10:22:46;;;;;;;18.13;11.33;;;;;;;;;;4994177;28;20228;-80
2022/03/27 10:25:16;;;;;;;16.00;10.00;;;;;;;;;;4990371;28;20244;-82
2022/03/27 10:27:44;;;;;;;17.97;9.93;;;;;;;;;;4985971;28;20204;-81
2022/03/27 10:30:12;;;;;;;20.43;10.93;;;;;;;;;;4991517;28;20212;-78
2022/03/27 10:32:41;;;;;;;20.03;11.00;;;;;;;;;;4989423;28;20239;-82
2022/03/27 10:35:18;;;;;;;18.37;11.30;;;;;;;;;;4992399;28;20669;-81
2022/03/27 10:38:05;;;;;;;16.40;10.77;;;;;;;;;;4977342;28;20224;-80
2022/03/27 10:40:59;;;;;;;19.80;10.67;;;;;;;;;;4978895;28;20211;-79
2022/03/27 10:43:29;;;;;;;18.93;11.70;;;;;;;;;;4981935;28;20311;-81
2022/03/27 10:46:17;;;;;;;15.73;10.60;;;;;;;;;;4973939;28;20228;-81
2022/03/27 10:48:45;;;;;;;21.80;11.07;;;;;;;;;;4977145;28;20667;-80
2022/03/27 10:51:32;;;;;;;17.63;11.27;;;;;;;;;;4983113;28;20216;-76
2022/03/27 10:54:08;;;;;;;19.93;11.57;;;;;;;;;;4993172;28;20232;-81
2022/03/27 10:56:37;;;;;;;17.33;11.43;;;;;;;;;;4999358;28;20203;-82
2022/03/27 10:59:40;;;;;;;21.20;11.67;;;;;;;;;;5008801;28;20220;-83
2022/03/27 11:05:31;;;;;;;22.07;11.40;;;;;;;;;;4978933;28;20203;-80
2022/03/27 11:08:19;;;;;;;25.77;11.37;;;;;;;;;;4986237;28;20821;-83
2022/03/27 11:10:55;;;;;;;15.90;10.50;;;;;;;;;;4979701;28;20646;-80
2022/03/27 11:13:26;;;;;;;17.17;10.93;;;;;;;;;;4989434;28;20267;-83
2022/03/27 11:16:02;;;;;;;20.27;11.07;;;;;;;;;;4992379;28;20204;-80
2022/03/27 11:18:37;;;;;;;16.80;11.40;;;;;;;;;;4989083;28;20251;-82
2022/03/27 11:21:04;;;;;;;15.85;11.23;;;;;;;;;;4989182;28;20268;-79
2022/03/27 11:23:33;;;;;;;15.98;11.00;;;;;;;;;;4981660;28;20316;-77
2022/03/27 11:26:01;;;;;;;17.75;11.43;;;;;;;;;;4989649;28;20244;-83
2022/03/27 11:28:43;;;;;;;14.98;10.80;;;;;;;;;;4985340;28;20232;-81
2022/03/27 11:31:10;;;;;;;20.10;11.68;;;;;;;;;;4992527;28;20236;-84
2022/03/27 11:33:39;;;;;;;14.63;10.25;;;;;;;;;;4993209;28;20326;-81
2022/03/27 11:36:11;;;;;;;16.90;10.73;;;;;;;;;;4979638;28;20726;-79
2022/03/27 11:38:54;;;;;;;19.25;11.13;;;;;;;;;;4979568;28;20940;-82
2022/03/27 11:41:23;;;;;;;17.02;10.35;;;;;;;;;;4974238;28;20208;-81
2022/03/27 11:43:50;;;;;;;15.85;10.20;;;;;;;;;;4996405;28;20256;-79
2022/03/27 11:46:23;;;;;;;16.25;10.55;;;;;;;;;;5000483;28;20204;-78
2022/03/27 11:49:01;;;;;;;16.02;10.25;;;;;;;;;;4987399;28;20204;-82
2022/03/27 11:51:30;;;;;;;15.75;9.65;;;;;;;;;;5000537;28;20219;-84
2022/03/27 11:54:16;;;;;;;16.95;9.98;;;;;;;;;;5000136;28;20665;-81
2022/03/27 11:57:11;;;;;;;;;;;;;;;;;;;;;
2022/03/27 11:59:55;;;;;;;15.32;9.90;;;;;;;;;;4993056;28;20204;-79
2022/03/27 12:02:22;;;;;;;19.23;10.88;;;;;;;;;;4999008;28;20212;-82
2022/03/27 12:04:55;;;;;;;17.63;10.20;;;;;;;;;;5000111;28;20196;-82
2022/03/27 12:07:26;;;;;;;15.32;10.25;;;;;;;;;;4995092;28;20208;-77
2022/03/27 12:09:59;;;;;;;18.83;11.68;;;;;;;;;;4999318;28;20208;-77
2022/03/27 12:12:40;;;;;;;14.65;10.32;;;;;;;;;;4994797;28;20239;-82
2022/03/27 12:15:11;;;;;;;16.25;10.02;;;;;;;;;;5001073;28;20293;-81
2022/03/27 12:17:54;;;;;;;19.58;10.43;;;;;;;;;;4995270;28;20224;-77
2022/03/27 12:20:22;;;;;;;13.52;9.75;;;;;;;;;;4993291;28;20209;-78
2022/03/27 12:22:50;;;;;;;15.40;9.90;;;;;;;;;;4985065;28;20219;-78
2022/03/27 12:25:20;;;;;;;13.70;9.90;;;;;;;;;;4992701;28;20243;-85
2022/03/27 12:30:57;;;;;;;13.70;10.48;;;;;;;;;;4989243;28;20287;-80
2022/03/27 12:33:27;;;;;;;17.35;10.50;;;;;;;;;;4991638;28;20283;-84
2022/03/27 12:36:09;;;;;;;14.70;9.43;;;;;;;;;;4974941;28;20240;-83
2022/03/27 12:38:36;;;;;;;13.05;9.77;;;;;;;;;;4971597;28;20357;-82
2022/03/27 12:41:04;;;;;;;13.90;10.13;;;;;;;;;;4984763;28;20239;-82
2022/03/27 12:43:44;;;;;;;16.15;10.57;;;;;;;;;;4985137;28;20655;-81
2022/03/27 12:46:23;;;;;;;15.88;10.25;;;;;;;;;;4986152;28;20208;-79
2022/03/27 12:48:59;;;;;;;15.18;10.10;;;;;;;;;;4981074;28;20209;-83
2022/03/27 12:51:27;;;;;;;13.35;9.15;;;;;;;;;;4975830;28;20857;-81
2022/03/27 12:54:05;;;;;;;14.13;9.25;;;;;;;;;;4965657;28;20220;-77
2022/03/27 12:56:32;;;;;;;14.40;9.55;;;;;;;;;;4972224;28;20301;-81
2022/03/27 12:59:17;;;;;;;15.98;9.18;;;;;;;;;;4976503;28;20359;-80
2022/03/27 13:01:44;;;;;;;13.95;9.73;;;;;;;;;;4977361;28;20583;-83
2022/03/27 13:04:22;;;;;;;15.07;9.13;;;;;;;;;;4977246;28;20215;-79
2022/03/27 13:06:58;;;;;;;15.57;10.45;;;;;;;;;;4992906;28;20247;-84
2022/03/27 13:09:27;;;;;;;14.15;10.35;;;;;;;;;;4970746;28;20208;-79
2022/03/27 13:11:54;;;;;;;15.23;10.73;;;;;;;;;;4970242;28;20223;-82
2022/03/27 13:14:22;;;;;;;17.77;10.60;;;;;;;;;;4978178;28;20251;-81
2022/03/27 13:16:50;;;;;;;16.10;11.45;;;;;;;;;;4980592;28;20737;-79
2022/03/27 13:19:19;;;;;;;13.90;9.95;;;;;;;;;;4979601;28;20682;-80
2022/03/27 13:21:48;;;;;;;15.20;10.43;;;;;;;;;;4978543;28;20204;-80
2022/03/27 13:24:17;;;;;;;12.50;9.82;;;;;;;;;;4973214;28;20217;-80
2022/03/27 13:26:46;;;;;;;15.35;9.73;;;;;;;;;;4979526;28;20272;-78
2022/03/27 13:29:14;;;;;;;15.43;10.43;;;;;;;;;;4976625;28;20289;-80
2022/03/27 13:31:41;;;;;;;14.18;9.50;;;;;;;;;;4978365;28;20699;-78
2022/03/27 13:34:10;;;;;;;13.18;9.70;;;;;;;;;;4972729;28;20232;-77
2022/03/27 13:36:39;;;;;;;14.13;10.90;;;;;;;;;;4974037;28;20295;-77
2022/03/27 13:39:07;;;;;;;12.52;9.98;;;;;;;;;;4976792;28;20294;-81
2022/03/27 13:44:21;;;;;;;15.18;9.48;;;;;;;;;;4980547;28;20316;-79
2022/03/27 13:46:49;;;;;;;15.48;10.43;;;;;;;;;;4979806;28;20259;-80
2022/03/27 13:49:17;;;;;;;14.55;9.75;;;;;;;;;;4974008;28;20287;-79
2022/03/27 13:51:46;;;;;;;13.00;9.95;;;;;;;;;;4975506;28;20667;-77
2022/03/27 13:54:13;;;;;;;12.63;9.82;;;;;;;;;;4975948;28;20585;-82
2022/03/27 13:56:41;;;;;;;12.55;9.73;;;;;;;;;;4981407;28;20212;-80
2022/03/27 13:59:09;;;;;;;14.85;10.90;;;;;;;;;;4977435;28;20294;-80
2022/03/27 14:01:37;;;;;;;13.27;10.45;;;;;;;;;;4977303;28;20262;-78
2022/03/27 14:04:04;;;;;;;14.43;10.73;;;;;;;;;;4982839;28;20246;-79
2022/03/27 14:06:36;;;;;;;13.32;10.30;;;;;;;;;;4990431;28;20296;-81
2022/03/27 14:09:04;;;;;;;12.88;10.25;;;;;;;;;;4988011;28;20229;-81
2022/03/27 14:11:33;;;;;;;13.95;10.40;;;;;;;;;;4978189;28;20232;-81
2022/03/27 14:14:00;;;;;;;12.88;10.05;;;;;;;;;;4976496;28;20300;-78
2022/03/27 14:16:28;;;;;;;15.38;10.68;;;;;;;;;;4975216;28;20218;-81
2022/03/27 14:18:56;;;;;;;15.40;10.95;;;;;;;;;;4978334;28;20220;-79
2022/03/27 14:21:26;;;;;;;14.23;10.85;;;;;;;;;;4975901;28;20374;-79
2022/03/27 14:23:54;;;;;;;14.95;10.93;;;;;;;;;;4975018;28;20235;-80
2022/03/27 14:26:22;;;;;;;16.95;11.05;;;;;;;;;;4973926;28;20201;-80
2022/03/27 14:28:53;;;;;;;21.15;13.57;;;;;;;;;;4970735;28;20231;-80
2022/03/27 14:31:20;;;;;;;13.82;9.98;;;;;;;;;;4968817;28;20227;-79
2022/03/27 14:33:47;;;;;;;14.13;11.38;;;;;;;;;;4972019;28;20236;-85
2022/03/27 14:36:15;;;;;;;13.98;11.07;;;;;;;;;;4974154;28;20284;-77
2022/03/27 14:38:43;;;;;;;14.20;10.90;;;;;;;;;;4973903;28;20653;-84
2022/03/27 14:41:11;;;;;;;15.18;10.68;;;;;;;;;;4968461;28;20208;-80
2022/03/27 14:43:38;;;;;;;13.50;10.63;;;;;;;;;;4971042;28;21265;-78
2022/03/27 14:46:05;;;;;;;12.73;10.05;;;;;;;;;;4970417;28;20350;-78
2022/03/27 14:48:34;;;;;;;13.52;10.55;;;;;;;;;;4966268;28;20343;-78
2022/03/27 14:51:01;;;;;;;14.40;10.40;;;;;;;;;;4968456;28;20201;-80
2022/03/27 14:55:57;;;;;;;13.30;10.07;;;;;;;;;;4972681;28;20739;-82
2022/03/27 14:56:21;;;;;;;15.63;10.23;;;;;;;;;;4965281;28;20624;-80
2022/03/27 14:58:48;;;;;;;14.93;10.15;;;;;;;;;;4975305;28;20232;-81
2022/03/27 15:01:16;;;;;;;13.50;10.20;;;;;;;;;;4970231;28;20235;-82
2022/03/27 15:03:44;;;;;;;14.48;10.48;;;;;;;;;;4984327;28;20761;-83
2022/03/27 15:06:13;;;;;;;13.50;9.55;;;;;;;;;;4985589;28;20207;-80
2022/03/27 15:08:41;;;;;;;15.77;9.75;;;;;;;;;;4975477;28;20212;-79
2022/03/27 15:11:12;;;;;;;15.25;9.57;;;;;;;;;;4968403;28;20823;-80
2022/03/27 15:13:39;;;;;;;13.07;9.90;;;;;;;;;;4975374;28;20256;-82
2022/03/27 15:16:09;;;;;;;12.95;9.13;;;;;;;;;;4972964;28;20291;-81
2022/03/27 15:18:37;;;;;;;12.50;9.68;;;;;;;;;;4969388;28;20228;-76
2022/03/27 15:21:08;;;;;;;13.18;10.13;;;;;;;;;;4966898;28;20212;-81
2022/03/27 15:23:35;;;;;;;11.95;9.35;;;;;;;;;;4972720;28;20294;-83
2022/03/27 15:26:03;;;;;;;14.73;9.82;;;;;;;;;;4974052;28;20247;-75
2022/03/27 15:28:30;;;;;;;11.75;9.30;;;;;;;;;;4969854;28;20213;-81
2022/03/27 15:31:01;;;;;;;13.65;9.13;;;;;;;;;;4978458;28;20291;-77
2022/03/27 15:33:29;;;;;;;11.82;8.73;;;;;;;;;;4973661;28;20731;-81
2022/03/27 15:35:56;;;;;;;13.48;9.65;;;;;;;;;;4975601;28;20251;-78
2022/03/27 15:38:24;;;;;;;16.17;9.77;;;;;;;;;;4973214;28;20719;-77
2022/03/27 15:40:51;;;;;;;13.38;9.90;;;;;;;;;;4970237;28;20200;-81
2022/03/27 15:43:18;;;;;;;12.45;9.60;;;;;;;;;;4975279;28;20312;-78
2022/03/27 15:45:45;;;;;;;14.05;10.00;;;;;;;;;;4969240;28;20240;-82
2022/03/27 15:48:16;;;;;;;16.85;10.88;;;;;;;;;;4968562;28;20204;-81
2022/03/27 15:50:43;;;;;;;12.48;8.88;;;;;;;;;;4968606;28;20317;-81
2022/03/27 15:53:11;;;;;;;13.77;8.82;;;;;;;;;;4969717;28;20247;-79
2022/03/27 15:55:38;;;;;;;10.88;8.82;;;;;;;;;;4974067;28;20270;-78
2022/03/27 15:58:08;;;;;;;11.07;8.93;;;;;;;;;;4968864;28;20241;-83
2022/03/27 16:00:37;;;;;;;11.77;9.13;;;;;;;;;;4972497;28;20315;-80
2022/03/27 16:03:04;;;;;;;15.10;9.32;;;;;;;;;;4968694;28;20315;-81
2022/03/27 16:05:32;;;;;;;12.98;9.98;;;;;;;;;;4968414;28;20651;-80
2022/03/27 16:07:59;;;;;;;12.43;8.68;;;;;;;;;;4987391;28;20261;-79
2022/03/27 16:10:26;;;;;;;11.57;8.68;;;;;;;;;;4983343;28;20405;-80
2022/03/27 16:12:53;;;;;;;11.60;9.20;;;;;;;;;;4968964;28;20315;-78
2022/03/27 16:15:21;;;;;;;13.45;9.38;;;;;;;;;;4985786;28;20200;-79
2022/03/27 16:17:52;;;;;;;12.23;8.82;;;;;;;;;;4989262;28;20203;-79
2022/03/27 16:20:19;;;;;;;14.43;9.05;;;;;;;;;;4972353;28;20743;-78
2022/03/27 16:22:47;;;;;;;13.82;9.30;;;;;;;;;;4980574;28;20315;-84
2022/03/27 16:25:14;;;;;;;13.38;9.55;;;;;;;;;;4973927;28;20645;-81
2022/03/27 16:27:42;;;;;;;11.13;8.45;;;;;;;;;;4968288;28;20212;-79
2022/03/27 16:30:09;;;;;;;11.52;8.95;;;;;;;;;;4961741;28;20215;-77
2022/03/27 16:32:37;;;;;;;12.40;8.90;;;;;;;;;;4964949;28;20644;-79
2022/03/27 16:35:04;;;;;;;13.38;9.55;;;;;;;;;;4964992;28;20388;-78
2022/03/27 16:37:31;;;;;;;12.10;9.80;;;;;;;;;;4968687;28;20664;-79
2022/03/27 16:39:59;;;;;;;13.30;9.48;;;;;;;;;;4959826;28;20221;-82
2022/03/27 16:42:26;;;;;;;12.20;8.98;;;;;;;;;;4978924;28;20237;-82
2022/03/27 16:44:53;;;;;;;14.25;8.93;;;;;;;;;;4979042;28;20247;-79
2022/03/27 16:47:21;;;;;;;11.95;8.52;;;;;;;;;;4982311;28;20240;-78
2022/03/27 16:49:48;;;;;;;13.27;9.07;;;;;;;;;;4989728;28;20291;-79
2022/03/27 16:52:15;;;;;;;12.98;9.18;;;;;;;;;;4982990;28;20295;-79
2022/03/27 16:54:42;;;;;;;11.27;8.75;;;;;;;;;;4982104;28;20240;-81
2022/03/27 16:57:10;;;;;;;13.27;9.02;;;;;;;;;;4979982;28;20828;-80
2022/03/27 16:59:38;;;;;;;12.32;9.10;;;;;;;;;;4985980;28;20326;-81
2022/03/27 17:02:06;;;;;;;12.48;8.98;;;;;;;;;;4988176;28;20250;-77
2022/03/27 17:04:34;;;;;;;13.18;9.43;;;;;;;;;;4975725;28;20213;-79
2022/03/27 17:07:01;;;;;;;17.30;9.57;;;;;;;;;;4982793;28;20795;-79
2022/03/27 17:09:28;;;;;;;17.15;10.32;;;;;;;;;;4985482;28;20312;-80
2022/03/27 17:11:57;;;;;;;19.02;11.70;;;;;;;;;;4984683;28;20774;-78
2022/03/27 17:14:24;;;;;;;13.90;9.10;;;;;;;;;;4980931;28;20314;-79
2022/03/27 17:16:51;;;;;;;14.88;10.15;;;;;;;;;;4974776;28;20567;-76
2022/03/27 17:19:19;;;;;;;13.88;9.88;;;;;;;;;;4973026;28;20219;-80
2022/03/27 17:21:56;;;;;;;11.50;9.05;;;;;;;;;;4982568;28;20232;-80
2022/03/27 17:24:25;;;;;;;15.25;8.60;;;;;;;;;;4982114;28;20224;-82
2022/03/27 17:26:53;;;;;;;13.10;8.07;;;;;;;;;;4983245;28;20216;-81
2022/03/27 17:29:21;;;;;;;13.25;9.40;;;;;;;;;;4976075;28;20208;-82
2022/03/27 17:31:59;;;;;;;12.60;9.03;;;;;;;;;;4978603;28;20579;-80
2022/03/27 17:34:27;;;;;;;15.68;9.23;;;;;;;;;;4968143;28;20224;-81
2022/03/27 17:36:55;;;;;;;17.87;9.20;;;;;;;;;;4975168;28;20705;-81
2022/03/27 17:39:23;;;;;;;13.03;9.53;;;;;;;;;;4980954;28;20220;-81
2022/03/27 17:41:50;;;;;;;13.07;9.13;;;;;;;;;;4984644;28;20299;-79
2022/03/27 17:44:18;;;;;;;13.93;8.93;;;;;;;;;;4968492;28;21484;-81
2022/03/27 17:46:45;;;;;;;11.87;8.43;;;;;;;;;;4976445;28;20268;-79
2022/03/27 17:49:13;;;;;;;14.60;9.77;;;;;;;;;;4971576;28;20259;-78
2022/03/27 17:51:40;;;;;;;15.07;9.30;;;;;;;;;;4972278;28;20332;-80
2022/03/27 17:54:08;;;;;;;14.67;9.27;;;;;;;;;;4971404;28;20715;-76
2022/03/27 17:56:36;;;;;;;19.67;11.13;;;;;;;;;;4969967;28;20229;-78
2022/03/27 17:59:04;;;;;;;14.73;9.33;;;;;;;;;;4970735;28;21306;-80
2022/03/27 18:01:37;;;;;;;12.93;9.20;;;;;;;;;;4975031;28;20228;-78
2022/03/27 18:04:04;;;;;;;13.03;9.30;;;;;;;;;;4974315;28;20227;-79
2022/03/27 18:06:32;;;;;;;12.80;8.50;;;;;;;;;;4971565;28;20284;-79
2022/03/27 18:08:59;;;;;;;13.50;9.73;;;;;;;;;;4975371;28;20259;-81
2022/03/27 18:11:26;;;;;;;14.80;9.47;;;;;;;;;;4972789;28;20635;-81
2022/03/27 18:13:54;;;;;;;14.07;9.50;;;;;;;;;;4970900;28;20311;-79
2022/03/27 18:16:21;;;;;;;15.13;9.67;;;;;;;;;;4976931;28;20269;-81
2022/03/27 18:18:49;;;;;;;17.27;10.33;;;;;;;;;;4976764;28;20208;-80
2022/03/27 18:21:16;;;;;;;14.73;9.83;;;;;;;;;;4978641;28;20235;-77
2022/03/27 18:23:44;;;;;;;15.53;10.27;;;;;;;;;;4975996;28;20349;-82
2022/03/27 18:26:13;;;;;;;18.50;11.93;;;;;;;;;;4982946;28;20204;-78
2022/03/27 18:28:41;;;;;;;19.00;12.03;;;;;;;;;;4976361;28;20302;-81
2022/03/27 18:31:08;;;;;;;15.17;11.00;;;;;;;;;;4985261;28;20348;-82
2022/03/27 18:33:37;;;;;;;14.10;9.90;;;;;;;;;;4982235;28;20306;-80
2022/03/27 18:36:06;;;;;;;13.03;9.40;;;;;;;;;;4982977;28;20295;-79
2022/03/27 18:38:34;;;;;;;16.53;8.93;;;;;;;;;;4986975;28;20232;-84
2022/03/27 18:41:03;;;;;;;13.93;8.93;;;;;;;;;;4983464;28;20755;-81
2022/03/27 18:43:30;;;;;;;15.37;9.07;;;;;;;;;;4985175;28;20260;-81
2022/03/27 18:45:58;;;;;;;14.50;9.47;;;;;;;;;;4984671;28;20295;-79
2022/03/27 18:48:26;;;;;;;15.77;9.80;;;;;;;;;;4981799;28;20318;-82
2022/03/27 18:50:53;;;;;;;18.70;9.60;;;;;;;;;;4980782;28;20239;-81
2022/03/27 18:53:20;;;;;;;12.90;9.30;;;;;;;;;;4975580;28;20253;-80
2022/03/27 18:55:48;;;;;;;14.50;10.13;;;;;;;;;;4983238;28;20216;-82
2022/03/27 18:58:18;;;;;;;15.73;9.87;;;;;;;;;;4984362;28;20215;-79
2022/03/27 19:00:45;;;;;;;15.30;10.20;;;;;;;;;;4982214;28;20239;-80
2022/03/27 19:03:17;;;;;;;15.70;9.37;;;;;;;;;;4982807;28;21167;-82
2022/03/27 19:05:44;;;;;;;12.70;8.83;;;;;;;;;;4987923;28;20210;-83
2022/03/27 19:08:12;;;;;;;12.37;8.87;;;;;;;;;;4984565;28;20231;-80
2022/03/27 19:10:40;;;;;;;15.80;8.77;;;;;;;;;;4980835;28;20287;-79
2022/03/27 19:13:07;;;;;;;12.67;8.50;;;;;;;;;;4975402;28;20325;-80
2022/03/27 19:15:35;;;;;;;14.90;9.73;;;;;;;;;;4979935;28;20219;-80
2022/03/27 19:18:14;;;;;;;12.13;7.70;;;;;;;;;;4981135;28;20307;-79
2022/03/27 19:20:42;;;;;;;12.17;8.00;;;;;;;;;;4980555;28;20279;-80
2022/03/27 19:23:15;;;;;;;15.77;9.97;;;;;;;;;;4987759;28;20319;-79
2022/03/27 19:25:45;;;;;;;16.13;10.40;;;;;;;;;;4986100;28;20200;-79
2022/03/27 19:28:20;;;;;;;19.93;10.50;;;;;;;;;;4985987;28;20561;-81
2022/03/27 19:30:47;;;;;;;13.90;9.20;;;;;;;;;;4985556;28;20254;-79
2022/03/27 19:33:15;;;;;;;13.30;8.40;;;;;;;;;;4988222;28;20242;-79
2022/03/27 19:35:46;;;;;;;15.63;8.33;;;;;;;;;;4979742;28;20275;-81
2022/03/27 19:38:14;;;;;;;14.77;8.80;;;;;;;;;;4975353;28;20212;-82
2022/03/27 19:40:41;;;;;;;14.10;8.13;;;;;;;;;;4973277;28;22669;-81
2022/03/27 19:43:08;;;;;;;11.53;7.73;;;;;;;;;;4954467;28;21294;-80
2022/03/27 19:45:36;;;;;;;14.27;7.90;;;;;;;;;;4977407;28;20949;-80
2022/03/27 19:48:03;;;;;;;12.57;8.00;;;;;;;;;;4962944;28;20208;-78
2022/03/27 19:50:30;;;;;;;14.30;9.10;;;;;;;;;;4976178;28;20307;-79
2022/03/27 19:52:58;;;;;;;15.97;9.20;;;;;;;;;;4980617;28;20252;-81
2022/03/27 19:55:26;;;;;;;22.57;12.47;;;;;;;;;;4983760;28;20244;-80
2022/03/27 19:57:55;;;;;;;21.47;12.87;;;;;;;;;;4977400;28;21458;-80
2022/03/27 20:00:22;;;;;;;24.10;13.37;;;;;;;;;;4976455;28;20778;-82
2022/03/27 20:02:51;;;;;;;24.67;13.90;;;;;;;;;;4971707;28;20617;-78
2022/03/27 20:05:20;;;;;;;20.40;13.17;;;;;;;;;;4962046;28;20722;-80
2022/03/27 20:07:47;;;;;;;21.73;13.70;;;;;;;;;;4977189;28;20228;-81
2022/03/27 20:10:19;;;;;;;21.13;12.27;;;;;;;;;;4985977;28;20722;-82
2022/03/27 20:12:48;;;;;;;19.27;12.23;;;;;;;;;;4983237;28;20236;-80
2022/03/27 20:15:17;;;;;;;21.50;12.93;;;;;;;;;;4987602;28;20204;-82